createdAt,value
2023-05-06T00:00:11.400Z,11.60
2023-05-06T00:01:11.362Z,11.51
2023-05-06T00:02:11.352Z,11.42
2023-05-06T00:03:11.426Z,11.36
2023-05-06T00:04:11.370Z,11.29
2023-05-06T00:05:11.868Z,11.25
2023-05-06T00:06:11.355Z,11.17
2023-05-06T00:07:11.306Z,11.10
2023-05-06T00:08:11.319Z,11.06
2023-05-06T00:09:11.337Z,11.02
2023-05-06T00:10:11.327Z,11.02
2023-05-06T00:11:11.284Z,11.00
2023-05-06T00:12:11.286Z,10.92
2023-05-06T00:13:11.318Z,10.86
2023-05-06T00:14:11.246Z,10.81
2023-05-06T00:15:11.582Z,10.76
2023-05-06T00:16:11.239Z,10.68
2023-05-06T00:17:11.207Z,10.63
2023-05-06T00:18:11.213Z,10.64
2023-05-06T00:19:11.198Z,10.63
2023-05-06T00:20:11.178Z,10.66
2023-05-06T00:21:11.204Z,10.63
2023-05-06T00:22:11.147Z,10.64
2023-05-06T00:23:11.143Z,10.63
2023-05-06T00:24:11.170Z,10.56
2023-05-06T00:25:11.360Z,10.53
2023-05-06T00:26:11.087Z,10.53
2023-05-06T00:27:11.091Z,10.53
2023-05-06T00:28:11.086Z,10.56
2023-05-06T00:29:11.119Z,10.60
2023-05-06T00:30:11.095Z,10.63
2023-05-06T00:31:11.046Z,10.64
2023-05-06T00:32:11.172Z,10.67
2023-05-06T00:33:11.132Z,10.70
2023-05-06T00:34:11.022Z,10.68
2023-05-06T00:35:11.241Z,10.74
2023-05-06T00:36:11.067Z,10.78
2023-05-06T00:37:10.989Z,10.74
2023-05-06T00:38:10.989Z,10.74
2023-05-06T00:39:10.959Z,10.74
2023-05-06T00:40:10.946Z,10.79
2023-05-06T00:41:10.962Z,10.81
2023-05-06T00:42:10.921Z,10.81
2023-05-06T00:43:10.950Z,10.81
2023-05-06T00:44:10.888Z,10.82
2023-05-06T00:45:11.098Z,10.86
2023-05-06T00:46:10.921Z,10.89
2023-05-06T00:47:10.872Z,10.91
2023-05-06T00:48:10.922Z,10.91
2023-05-06T00:49:10.878Z,10.92
2023-05-06T00:50:10.837Z,10.96
2023-05-06T00:51:10.825Z,10.97
2023-05-06T00:52:10.805Z,10.97
2023-05-06T00:53:10.844Z,10.99
2023-05-06T00:54:10.787Z,10.96
2023-05-06T00:55:11.024Z,10.97
2023-05-06T00:56:10.783Z,10.96
2023-05-06T00:57:10.767Z,10.94
2023-05-06T00:58:10.731Z,10.91
2023-05-06T00:59:10.768Z,10.88
2023-05-06T01:00:10.717Z,10.86
2023-05-06T01:01:10.847Z,10.86
2023-05-06T01:02:10.710Z,10.84
2023-05-06T01:03:10.772Z,10.85
2023-05-06T01:04:10.721Z,10.85
2023-05-06T01:05:10.962Z,10.85
2023-05-06T01:06:10.682Z,10.85
2023-05-06T01:07:10.723Z,10.84
2023-05-06T01:08:10.624Z,10.84
2023-05-06T01:09:10.646Z,10.82
2023-05-06T01:10:10.637Z,10.81
2023-05-06T01:11:10.609Z,10.81
2023-05-06T01:12:19.174Z,10.79
2023-05-06T01:13:10.635Z,10.81
2023-05-06T01:14:11.287Z,10.81
2023-05-06T01:15:10.809Z,10.82
2023-05-06T01:16:10.568Z,10.81
2023-05-06T01:17:10.665Z,10.81
2023-05-06T01:18:10.590Z,10.79
2023-05-06T01:19:10.554Z,10.81
2023-05-06T01:20:10.515Z,10.79
2023-05-06T01:21:10.513Z,10.79
2023-05-06T01:22:10.512Z,10.78
2023-05-06T01:23:10.490Z,10.78
2023-05-06T01:24:10.478Z,10.79
2023-05-06T01:25:10.702Z,10.76
2023-05-06T01:26:10.472Z,10.76
2023-05-06T01:27:10.445Z,10.74
2023-05-06T01:28:10.484Z,10.74
2023-05-06T01:29:10.446Z,10.74
2023-05-06T01:30:10.414Z,10.74
2023-05-06T01:31:10.460Z,10.76
2023-05-06T01:32:10.385Z,10.73
2023-05-06T01:33:10.380Z,10.73
2023-05-06T01:34:10.361Z,10.73
2023-05-06T01:35:10.591Z,10.73
2023-05-06T01:36:10.356Z,10.73
2023-05-06T01:37:10.322Z,10.74
2023-05-06T01:38:10.351Z,10.76
2023-05-06T01:39:10.344Z,10.74
2023-05-06T01:40:10.317Z,10.76
2023-05-06T01:41:10.299Z,10.76
2023-05-06T01:42:10.286Z,10.76
2023-05-06T01:43:10.299Z,10.74
2023-05-06T01:44:10.246Z,10.76
2023-05-06T01:45:10.443Z,10.74
2023-05-06T01:46:10.298Z,10.74
2023-05-06T01:47:10.253Z,10.74
2023-05-06T01:48:10.268Z,10.74
2023-05-06T01:49:10.223Z,10.73
2023-05-06T01:50:10.182Z,10.73
2023-05-06T01:51:10.201Z,10.74
2023-05-06T01:52:10.177Z,10.71
2023-05-06T01:53:10.183Z,10.74
2023-05-06T01:54:10.133Z,10.76
2023-05-06T01:55:10.275Z,10.74
2023-05-06T01:56:10.139Z,10.73
2023-05-06T01:57:10.123Z,10.73
2023-05-06T01:58:10.120Z,10.74
2023-05-06T01:59:10.133Z,10.71
2023-05-06T02:00:10.092Z,10.73
2023-05-06T02:01:10.307Z,10.73
2023-05-06T02:02:10.146Z,10.73
2023-05-06T02:03:10.149Z,10.71
2023-05-06T02:04:10.060Z,10.74
2023-05-06T02:05:10.277Z,10.71
2023-05-06T02:06:10.012Z,10.70
2023-05-06T02:07:10.030Z,10.70
2023-05-06T02:08:09.984Z,10.73
2023-05-06T02:09:10.184Z,10.71
2023-05-06T02:10:10.000Z,10.71
2023-05-06T02:11:09.970Z,10.70
2023-05-06T02:12:09.943Z,10.73
2023-05-06T02:13:09.995Z,10.71
2023-05-06T02:14:09.916Z,10.70
2023-05-06T02:15:10.156Z,10.70
2023-05-06T02:16:09.970Z,10.71
2023-05-06T02:17:09.945Z,10.70
2023-05-06T02:18:09.871Z,10.70
2023-05-06T02:19:09.880Z,10.70
2023-05-06T02:20:09.867Z,10.70
2023-05-06T02:21:09.876Z,10.70
2023-05-06T02:22:09.838Z,10.70
2023-05-06T02:23:09.846Z,10.70
2023-05-06T02:24:09.806Z,10.70
2023-05-06T02:25:10.084Z,10.71
2023-05-06T02:26:09.818Z,10.68
2023-05-06T02:27:09.786Z,10.70
2023-05-06T02:28:09.775Z,10.73
2023-05-06T02:29:09.765Z,10.71
2023-05-06T02:30:09.775Z,10.70
2023-05-06T02:31:09.782Z,10.70
2023-05-06T02:32:09.726Z,10.70
2023-05-06T02:33:09.751Z,10.68
2023-05-06T02:34:09.709Z,10.71
2023-05-06T02:35:10.080Z,10.68
2023-05-06T02:36:09.696Z,10.68
2023-05-06T02:37:09.702Z,10.68
2023-05-06T02:38:09.690Z,10.67
2023-05-06T02:39:09.694Z,10.67
2023-05-06T02:40:09.694Z,10.66
2023-05-06T02:41:09.654Z,10.67
2023-05-06T02:42:09.635Z,10.70
2023-05-06T02:43:09.642Z,10.68
2023-05-06T02:44:09.618Z,10.68
2023-05-06T02:45:09.834Z,10.68
2023-05-06T02:46:09.620Z,10.68
2023-05-06T02:47:09.579Z,10.68
2023-05-06T02:48:09.578Z,10.68
2023-05-06T02:49:09.562Z,10.70
2023-05-06T02:50:09.550Z,10.68
2023-05-06T02:51:09.559Z,10.66
2023-05-06T02:52:09.524Z,10.63
2023-05-06T02:53:09.546Z,10.61
2023-05-06T02:54:09.507Z,10.60
2023-05-06T02:55:09.680Z,10.63
2023-05-06T02:56:09.490Z,10.63
2023-05-06T02:57:09.472Z,10.64
2023-05-06T02:58:09.464Z,10.64
2023-05-06T02:59:09.459Z,10.63
2023-05-06T03:00:09.450Z,10.63
2023-05-06T03:01:09.468Z,10.63
2023-05-06T03:02:09.420Z,10.63
2023-05-06T03:03:09.427Z,10.64
2023-05-06T03:04:09.427Z,10.64
2023-05-06T03:05:09.580Z,10.64
2023-05-06T03:06:09.364Z,10.64
2023-05-06T03:07:09.365Z,10.63
2023-05-06T03:08:09.360Z,10.63
2023-05-06T03:09:09.336Z,10.63
2023-05-06T03:10:09.329Z,10.66
2023-05-06T03:11:09.507Z,10.63
2023-05-06T03:12:09.300Z,10.63
2023-05-06T03:13:09.333Z,10.60
2023-05-06T03:14:09.287Z,10.63
2023-05-06T03:15:09.509Z,10.61
2023-05-06T03:16:09.280Z,10.64
2023-05-06T03:17:09.252Z,10.63
2023-05-06T03:18:09.267Z,10.63
2023-05-06T03:19:09.228Z,10.63
2023-05-06T03:20:09.213Z,10.67
2023-05-06T03:21:09.281Z,10.66
2023-05-06T03:22:09.183Z,10.64
2023-05-06T03:23:09.194Z,10.64
2023-05-06T03:24:09.168Z,10.66
2023-05-06T03:25:09.342Z,10.63
2023-05-06T03:26:09.156Z,10.66
2023-05-06T03:27:09.181Z,10.63
2023-05-06T03:28:09.125Z,10.63
2023-05-06T03:29:09.140Z,10.63
2023-05-06T03:30:09.111Z,10.63
2023-05-06T03:31:09.131Z,10.61
2023-05-06T03:32:09.118Z,10.59
2023-05-06T03:33:09.090Z,10.59
2023-05-06T03:34:09.065Z,10.56
2023-05-06T03:35:09.309Z,10.59
2023-05-06T03:36:09.068Z,10.55
2023-05-06T03:37:09.111Z,10.59
2023-05-06T03:38:09.027Z,10.59
2023-05-06T03:39:09.034Z,10.60
2023-05-06T03:40:09.018Z,10.59
2023-05-06T03:41:09.008Z,10.59
2023-05-06T03:42:09.829Z,10.61
2023-05-06T03:43:08.958Z,10.59
2023-05-06T03:44:08.937Z,10.61
2023-05-06T03:45:09.314Z,10.61
2023-05-06T03:46:08.952Z,10.63
2023-05-06T03:47:08.945Z,10.63
2023-05-06T03:48:08.955Z,10.56
2023-05-06T03:49:08.898Z,10.52
2023-05-06T03:50:08.906Z,10.51
2023-05-06T03:51:08.870Z,10.51
2023-05-06T03:52:08.861Z,10.51
2023-05-06T03:53:08.873Z,10.53
2023-05-06T03:54:08.847Z,10.53
2023-05-06T03:55:09.042Z,10.51
2023-05-06T03:56:08.813Z,10.45
2023-05-06T03:57:08.816Z,10.45
2023-05-06T03:58:08.812Z,10.45
2023-05-06T03:59:08.803Z,10.45
2023-05-06T04:00:08.798Z,10.44
2023-05-06T04:01:08.762Z,10.47
2023-05-06T04:02:08.794Z,10.44
2023-05-06T04:03:08.750Z,10.44
2023-05-06T04:04:08.827Z,10.47
2023-05-06T04:05:09.020Z,10.44
2023-05-06T04:06:09.381Z,10.45
2023-05-06T04:07:08.702Z,10.45
2023-05-06T04:08:08.721Z,10.47
2023-05-06T04:09:08.659Z,10.48
2023-05-06T04:10:08.675Z,10.47
2023-05-06T04:11:08.659Z,10.47
2023-05-06T04:12:08.657Z,10.42
2023-05-06T04:13:08.814Z,10.38
2023-05-06T04:14:08.644Z,10.36
2023-05-06T04:15:08.833Z,10.33
2023-05-06T04:16:09.651Z,10.33
2023-05-06T04:17:08.632Z,10.33
2023-05-06T04:18:08.667Z,10.30
2023-05-06T04:19:08.576Z,10.27
2023-05-06T04:20:08.695Z,10.26
2023-05-06T04:21:08.537Z,10.30
2023-05-06T04:22:08.543Z,10.27
2023-05-06T04:23:08.581Z,10.26
2023-05-06T04:24:08.538Z,10.25
2023-05-06T04:25:08.888Z,10.25
2023-05-06T04:26:08.529Z,10.23
2023-05-06T04:27:08.560Z,10.20
2023-05-06T04:28:08.532Z,10.22
2023-05-06T04:29:08.475Z,10.22
2023-05-06T04:30:08.506Z,10.26
2023-05-06T04:31:08.569Z,10.27
2023-05-06T04:32:08.484Z,10.27
2023-05-06T04:33:08.496Z,10.30
2023-05-06T04:34:08.440Z,10.30
2023-05-06T04:35:08.714Z,10.32
2023-05-06T04:36:08.428Z,10.32
2023-05-06T04:37:08.381Z,10.33
2023-05-06T04:38:08.407Z,10.33
2023-05-06T04:39:08.379Z,10.32
2023-05-06T04:40:08.393Z,10.32
2023-05-06T04:41:08.357Z,10.32
2023-05-06T04:42:08.367Z,10.29
2023-05-06T04:43:08.333Z,10.27
2023-05-06T04:44:08.431Z,10.23
2023-05-06T04:45:08.512Z,10.23
2023-05-06T04:46:08.435Z,10.23
2023-05-06T04:47:08.283Z,10.27
2023-05-06T04:48:08.299Z,10.32
2023-05-06T04:49:08.810Z,10.33
2023-05-06T04:50:08.299Z,10.38
2023-05-06T04:51:08.247Z,10.38
2023-05-06T04:52:08.249Z,10.42
2023-05-06T04:53:08.244Z,10.41
2023-05-06T04:54:08.213Z,10.44
2023-05-06T04:55:08.445Z,10.45
2023-05-06T04:56:08.208Z,10.45
2023-05-06T04:57:08.200Z,10.48
2023-05-06T04:58:08.171Z,10.48
2023-05-06T04:59:08.163Z,10.51
2023-05-06T05:00:08.460Z,10.53
2023-05-06T05:01:08.156Z,10.56
2023-05-06T05:02:08.175Z,10.60
2023-05-06T05:03:08.293Z,10.63
2023-05-06T05:04:08.109Z,10.60
2023-05-06T05:05:08.218Z,10.63
2023-05-06T05:06:08.122Z,10.61
2023-05-06T05:07:08.067Z,10.59
2023-05-06T05:08:08.049Z,10.59
2023-05-06T05:09:08.080Z,10.59
2023-05-06T05:10:08.080Z,10.63
2023-05-06T05:11:08.041Z,10.66
2023-05-06T05:12:08.041Z,10.70
2023-05-06T05:13:08.060Z,10.74
2023-05-06T05:14:08.019Z,10.76
2023-05-06T05:15:08.252Z,10.85
2023-05-06T05:16:07.992Z,10.89
2023-05-06T05:17:08.050Z,10.94
2023-05-06T05:18:08.022Z,10.91
2023-05-06T05:19:09.363Z,10.92
2023-05-06T05:20:07.987Z,10.91
2023-05-06T05:21:07.922Z,10.89
2023-05-06T05:22:07.944Z,10.89
2023-05-06T05:23:07.886Z,10.89
2023-05-06T05:24:07.899Z,10.88
2023-05-06T05:25:08.577Z,10.89
2023-05-06T05:26:07.882Z,10.96
2023-05-06T05:27:07.888Z,11.02
2023-05-06T05:28:07.856Z,11.07
2023-05-06T05:29:07.835Z,11.14
2023-05-06T05:30:07.847Z,11.17
2023-05-06T05:31:09.750Z,11.21
2023-05-06T05:32:07.952Z,11.21
2023-05-06T05:33:07.999Z,11.22
2023-05-06T05:34:07.789Z,11.24
2023-05-06T05:35:07.993Z,11.21
2023-05-06T05:36:07.768Z,11.22
2023-05-06T05:37:07.746Z,11.19
2023-05-06T05:38:07.772Z,11.24
2023-05-06T05:39:07.724Z,11.29
2023-05-06T05:40:07.721Z,11.35
2023-05-06T05:41:07.744Z,11.43
2023-05-06T05:42:07.724Z,11.47
2023-05-06T05:43:07.692Z,11.44
2023-05-06T05:44:07.696Z,11.40
2023-05-06T05:45:08.018Z,11.42
2023-05-06T05:46:07.779Z,11.35
2023-05-06T05:47:08.432Z,11.29
2023-05-06T05:48:07.704Z,11.24
2023-05-06T05:49:07.614Z,11.15
2023-05-06T05:50:07.694Z,11.11
2023-05-06T05:51:07.626Z,11.07
2023-05-06T05:52:07.603Z,11.10
2023-05-06T05:53:07.598Z,11.14
2023-05-06T05:54:07.673Z,11.18
2023-05-06T05:55:07.654Z,11.18
2023-05-06T05:56:11.495Z,11.22
2023-05-06T05:57:07.552Z,11.28
2023-05-06T05:58:11.562Z,11.33
2023-05-06T05:59:07.526Z,11.33
2023-05-06T06:00:07.505Z,11.36
2023-05-06T06:01:07.492Z,11.35
2023-05-06T06:02:07.477Z,11.39
2023-05-06T06:03:07.551Z,11.44
2023-05-06T06:04:07.597Z,11.46
2023-05-06T06:05:07.609Z,11.51
2023-05-06T06:06:07.457Z,11.54
2023-05-06T06:07:07.442Z,11.60
2023-05-06T06:08:07.440Z,11.65
2023-05-06T06:09:07.442Z,11.67
2023-05-06T06:10:07.449Z,11.67
2023-05-06T06:11:07.408Z,11.64
2023-05-06T06:12:07.384Z,11.62
2023-05-06T06:13:07.563Z,11.62
2023-05-06T06:14:07.370Z,11.65
2023-05-06T06:15:07.394Z,11.65
2023-05-06T06:16:07.384Z,11.65
2023-05-06T06:17:07.474Z,11.67
2023-05-06T06:18:07.328Z,11.61
2023-05-06T06:19:07.297Z,11.60
2023-05-06T06:20:07.297Z,11.58
2023-05-06T06:21:07.304Z,11.60
2023-05-06T06:22:07.272Z,11.47
2023-05-06T06:23:07.257Z,11.51
2023-05-06T06:24:07.302Z,11.54
2023-05-06T06:25:07.314Z,11.58
2023-05-06T06:26:07.243Z,11.64
2023-05-06T06:27:07.214Z,11.72
2023-05-06T06:28:07.212Z,11.79
2023-05-06T06:29:07.218Z,11.85
2023-05-06T06:30:07.227Z,11.90
2023-05-06T06:31:07.177Z,11.91
2023-05-06T06:32:07.292Z,11.91
2023-05-06T06:33:07.193Z,11.95
2023-05-06T06:34:07.173Z,11.98
2023-05-06T06:35:07.262Z,11.96
2023-05-06T06:36:07.128Z,11.99
2023-05-06T06:37:08.004Z,11.98
2023-05-06T06:38:07.092Z,11.96
2023-05-06T06:39:07.058Z,11.96
2023-05-06T06:40:07.060Z,12.01
2023-05-06T06:41:07.055Z,12.02
2023-05-06T06:42:07.033Z,12.09
2023-05-06T06:43:07.050Z,12.10
2023-05-06T06:44:07.055Z,12.07
2023-05-06T06:45:07.092Z,12.04
2023-05-06T06:46:07.055Z,12.02
2023-05-06T06:47:07.025Z,12.05
2023-05-06T06:48:07.080Z,12.13
2023-05-06T06:49:06.995Z,12.19
2023-05-06T06:50:06.963Z,12.29
2023-05-06T06:51:06.960Z,12.29
2023-05-06T06:52:06.958Z,12.39
2023-05-06T06:53:06.968Z,12.41
2023-05-06T06:54:06.947Z,12.49
2023-05-06T06:55:06.906Z,12.45
2023-05-06T06:56:06.904Z,12.37
2023-05-06T06:57:06.945Z,12.34
2023-05-06T06:58:06.895Z,12.37
2023-05-06T06:59:06.868Z,12.41
2023-05-06T07:00:06.864Z,12.49
2023-05-06T07:01:06.917Z,12.60
2023-05-06T07:02:06.857Z,12.70
2023-05-06T07:03:06.938Z,12.77
2023-05-06T07:04:07.366Z,12.90
2023-05-06T07:05:06.798Z,12.97
2023-05-06T07:06:06.812Z,13.03
2023-05-06T07:07:06.771Z,12.96
2023-05-06T07:08:06.781Z,13.00
2023-05-06T07:09:06.767Z,13.05
2023-05-06T07:10:06.783Z,13.08
2023-05-06T07:11:06.821Z,13.07
2023-05-06T07:12:06.761Z,13.12
2023-05-06T07:13:06.761Z,13.19
2023-05-06T07:14:06.721Z,13.23
2023-05-06T07:15:06.698Z,13.26
2023-05-06T07:16:06.683Z,13.25
2023-05-06T07:17:06.697Z,13.17
2023-05-06T07:18:06.790Z,13.23
2023-05-06T07:19:06.860Z,13.23
2023-05-06T07:20:06.654Z,13.25
2023-05-06T07:21:06.628Z,13.30
2023-05-06T07:22:06.628Z,13.28
2023-05-06T07:23:06.641Z,13.25
2023-05-06T07:24:06.598Z,13.22
2023-05-06T07:25:06.575Z,13.20
2023-05-06T07:26:06.585Z,13.26
2023-05-06T07:27:06.582Z,13.20
2023-05-06T07:28:06.583Z,13.26
2023-05-06T07:29:13.639Z,13.38
2023-05-06T07:30:06.520Z,13.45
2023-05-06T07:31:06.569Z,13.52
2023-05-06T07:32:09.275Z,13.60
2023-05-06T07:33:06.546Z,13.63
2023-05-06T07:34:06.546Z,13.73
2023-05-06T07:35:06.495Z,13.81
2023-05-06T07:36:06.590Z,13.88
2023-05-06T07:37:06.525Z,13.95
2023-05-06T07:38:06.503Z,13.96
2023-05-06T07:39:06.455Z,14.03
2023-05-06T07:40:06.492Z,14.12
2023-05-06T07:41:06.481Z,14.17
2023-05-06T07:42:06.409Z,14.25
2023-05-06T07:43:06.476Z,14.29
2023-05-06T07:44:06.412Z,14.29
2023-05-06T07:45:06.368Z,14.39
2023-05-06T07:46:06.439Z,14.45
2023-05-06T07:47:06.488Z,14.46
2023-05-06T07:48:06.386Z,14.52
2023-05-06T07:49:06.321Z,14.58
2023-05-06T07:50:07.245Z,14.64
2023-05-06T07:51:06.343Z,14.72
2023-05-06T07:52:06.296Z,14.70
2023-05-06T07:53:06.278Z,14.65
2023-05-06T07:54:06.305Z,14.65
2023-05-06T07:55:06.245Z,14.73
2023-05-06T07:56:06.246Z,14.68
2023-05-06T07:57:06.236Z,14.73
2023-05-06T07:58:06.243Z,14.78
2023-05-06T07:59:06.225Z,14.83
2023-05-06T08:00:06.229Z,14.83
2023-05-06T08:01:06.210Z,14.88
2023-05-06T08:02:06.240Z,14.95
2023-05-06T08:03:06.312Z,14.95
2023-05-06T08:04:06.255Z,14.83
2023-05-06T08:05:06.134Z,14.81
2023-05-06T08:06:06.151Z,14.94
2023-05-06T08:07:06.120Z,15.09
2023-05-06T08:08:06.120Z,15.21
2023-05-06T08:09:06.104Z,15.39
2023-05-06T08:10:06.100Z,15.54
2023-05-06T08:11:06.113Z,15.67
2023-05-06T08:12:06.086Z,15.75
2023-05-06T08:13:06.121Z,15.83
2023-05-06T08:14:06.883Z,15.96
2023-05-06T08:15:06.061Z,16.07
2023-05-06T08:16:06.113Z,16.15
2023-05-06T08:17:06.126Z,16.20
2023-05-06T08:18:20.876Z,16.17
2023-05-06T08:19:07.135Z,16.21
2023-05-06T08:20:05.994Z,16.11
2023-05-06T08:21:06.364Z,16.14
2023-05-06T08:22:06.018Z,16.17
2023-05-06T08:23:05.983Z,16.05
2023-05-06T08:24:05.957Z,15.97
2023-05-06T08:25:06.072Z,16.02
2023-05-06T08:26:05.920Z,15.90
2023-05-06T08:27:05.913Z,15.68
2023-05-06T08:28:05.938Z,15.71
2023-05-06T08:29:05.902Z,16.78
2023-05-06T08:30:05.896Z,17.25
2023-05-06T08:31:05.940Z,18.02
2023-05-06T08:32:05.912Z,18.25
2023-05-06T08:33:05.920Z,17.97
2023-05-06T08:34:05.877Z,18.00
2023-05-06T08:35:05.854Z,17.86
2023-05-06T08:36:05.823Z,17.68
2023-05-06T08:37:05.845Z,17.59
2023-05-06T08:38:05.822Z,17.37
2023-05-06T08:39:05.815Z,16.94
2023-05-06T08:40:05.797Z,16.79
2023-05-06T08:41:05.783Z,16.81
2023-05-06T08:42:05.759Z,16.91
2023-05-06T08:43:05.750Z,16.98
2023-05-06T08:44:05.735Z,17.01
2023-05-06T08:45:05.733Z,17.84
2023-05-06T08:46:05.723Z,19.06
2023-05-06T08:47:05.810Z,19.80
2023-05-06T08:48:05.714Z,19.99
2023-05-06T08:49:05.709Z,18.91
2023-05-06T08:50:05.692Z,18.62
2023-05-06T08:51:05.698Z,18.90
2023-05-06T08:52:07.161Z,19.37
2023-05-06T08:53:05.668Z,19.71
2023-05-06T08:54:05.641Z,19.56
2023-05-06T08:55:05.638Z,19.21
2023-05-06T08:56:05.624Z,19.07
2023-05-06T08:57:05.620Z,19.11
2023-05-06T08:58:06.587Z,19.47
2023-05-06T08:59:05.605Z,19.87
2023-05-06T09:00:05.567Z,20.13
2023-05-06T09:01:05.614Z,20.08
2023-05-06T09:02:05.579Z,20.21
2023-05-06T09:03:05.642Z,20.59
2023-05-06T09:04:05.534Z,20.24
2023-05-06T09:05:05.531Z,19.99
2023-05-06T09:06:05.521Z,20.10
2023-05-06T09:07:05.514Z,19.84
2023-05-06T09:08:05.466Z,20.01
2023-05-06T09:09:05.484Z,20.10
2023-05-06T09:10:05.447Z,20.42
2023-05-06T09:11:05.491Z,20.57
2023-05-06T09:12:05.448Z,20.61
2023-05-06T09:13:05.465Z,20.92
2023-05-06T09:14:05.422Z,21.96
2023-05-06T09:15:05.532Z,22.42
2023-05-06T09:16:05.421Z,22.49
2023-05-06T09:17:05.524Z,22.36
2023-05-06T09:18:05.503Z,21.35
2023-05-06T09:19:05.392Z,21.14
2023-05-06T09:20:05.334Z,21.19
2023-05-06T09:21:05.340Z,20.48
2023-05-06T09:22:05.345Z,20.89
2023-05-06T09:23:06.590Z,20.35
2023-05-06T09:24:05.368Z,19.81
2023-05-06T09:25:05.323Z,19.21
2023-05-06T09:26:05.280Z,18.94
2023-05-06T09:27:05.302Z,18.82
2023-05-06T09:28:05.258Z,18.62
2023-05-06T09:29:05.258Z,18.60
2023-05-06T09:30:05.239Z,18.67
2023-05-06T09:31:05.285Z,18.76
2023-05-06T09:32:05.251Z,18.60
2023-05-06T09:33:05.292Z,18.10
2023-05-06T09:34:05.214Z,17.87
2023-05-06T09:35:05.239Z,17.75
2023-05-06T09:36:05.260Z,17.62
2023-05-06T09:37:05.196Z,17.77
2023-05-06T09:38:07.073Z,18.18
2023-05-06T09:39:05.206Z,19.10
2023-05-06T09:40:05.256Z,19.66
2023-05-06T09:41:05.124Z,19.13
2023-05-06T09:42:05.118Z,18.92
2023-05-06T09:43:05.144Z,19.00
2023-05-06T09:44:05.108Z,19.07
2023-05-06T09:45:05.583Z,19.96
2023-05-06T09:46:05.108Z,20.91
2023-05-06T09:47:05.080Z,21.69
2023-05-06T09:48:05.100Z,22.30
2023-05-06T09:49:05.053Z,21.68
2023-05-06T09:50:05.033Z,21.28
2023-05-06T09:51:05.060Z,20.97
2023-05-06T09:52:05.030Z,20.24
2023-05-06T09:53:05.012Z,19.81
2023-05-06T09:54:06.384Z,19.73
2023-05-06T09:55:04.995Z,19.51
2023-05-06T09:56:04.985Z,19.39
2023-05-06T09:57:04.985Z,19.43
2023-05-06T09:58:04.959Z,19.33
2023-05-06T09:59:04.959Z,19.14
2023-05-06T10:00:04.922Z,19.28
2023-05-06T10:01:04.926Z,19.40
2023-05-06T10:02:04.942Z,19.29
2023-05-06T10:03:05.007Z,19.39
2023-05-06T10:04:05.115Z,19.46
2023-05-06T10:05:04.979Z,19.44
2023-05-06T10:06:04.876Z,19.91
2023-05-06T10:07:04.857Z,19.66
2023-05-06T10:08:04.848Z,19.63
2023-05-06T10:09:04.886Z,20.51
2023-05-06T10:10:04.796Z,21.22
2023-05-06T10:11:04.822Z,21.77
2023-05-06T10:12:04.794Z,21.49
2023-05-06T10:13:05.004Z,21.84
2023-05-06T10:14:04.783Z,21.67
2023-05-06T10:15:04.761Z,21.96
2023-05-06T10:16:04.829Z,21.68
2023-05-06T10:17:04.746Z,21.32
2023-05-06T10:18:04.762Z,21.53
2023-05-06T10:19:04.747Z,22.00
2023-05-06T10:20:04.736Z,21.79
2023-05-06T10:21:04.714Z,22.30
2023-05-06T10:22:05.744Z,22.03
2023-05-06T10:23:04.686Z,21.67
2023-05-06T10:24:04.668Z,20.85
2023-05-06T10:25:08.666Z,20.18
2023-05-06T10:26:04.657Z,19.91
2023-05-06T10:27:04.649Z,19.78
2023-05-06T10:28:06.497Z,19.77
2023-05-06T10:29:05.621Z,19.80
2023-05-06T10:30:04.600Z,20.05
2023-05-06T10:31:04.605Z,20.62
2023-05-06T10:32:04.648Z,21.01
2023-05-06T10:33:04.619Z,21.13
2023-05-06T10:34:04.581Z,21.06
2023-05-06T10:35:04.551Z,21.10
2023-05-06T10:36:04.548Z,21.32
2023-05-06T10:37:04.525Z,21.21
2023-05-06T10:38:04.513Z,21.31
2023-05-06T10:39:04.518Z,21.46
2023-05-06T10:40:04.508Z,21.13
2023-05-06T10:41:04.492Z,20.58
2023-05-06T10:42:04.468Z,19.95
2023-05-06T10:43:04.475Z,20.16
2023-05-06T10:44:04.461Z,20.31
2023-05-06T10:45:04.511Z,20.55
2023-05-06T10:46:04.439Z,20.55
2023-05-06T10:47:04.425Z,20.70
2023-05-06T10:48:04.421Z,20.79
2023-05-06T10:49:04.413Z,20.79
2023-05-06T10:50:04.390Z,20.82
2023-05-06T10:51:04.388Z,20.66
2023-05-06T10:52:04.374Z,20.59
2023-05-06T10:53:04.372Z,20.55
2023-05-06T10:54:04.355Z,20.50
2023-05-06T10:55:04.328Z,20.51
2023-05-06T10:56:04.387Z,20.52
2023-05-06T10:57:04.314Z,20.33
2023-05-06T10:58:04.280Z,20.38
2023-05-06T10:59:04.328Z,20.51
2023-05-06T11:00:04.296Z,20.55
2023-05-06T11:01:04.332Z,20.52
2023-05-06T11:02:04.352Z,20.69
2023-05-06T11:03:04.330Z,20.79
2023-05-06T11:04:04.257Z,20.85
2023-05-06T11:05:04.252Z,20.99
2023-05-06T11:06:04.240Z,21.03
2023-05-06T11:07:04.206Z,21.09
2023-05-06T11:08:04.212Z,21.29
2023-05-06T11:09:04.240Z,21.40
2023-05-06T11:10:04.169Z,21.50
2023-05-06T11:11:04.347Z,21.47
2023-05-06T11:12:04.184Z,21.19
2023-05-06T11:13:04.229Z,20.99
2023-05-06T11:14:04.097Z,20.97
2023-05-06T11:15:04.136Z,20.95
2023-05-06T11:16:04.119Z,21.14
2023-05-06T11:17:04.197Z,21.37
2023-05-06T11:18:04.166Z,21.62
2023-05-06T11:19:04.078Z,21.71
2023-05-06T11:20:04.060Z,21.64
2023-05-06T11:21:04.089Z,21.91
2023-05-06T11:22:04.075Z,22.09
2023-05-06T11:23:04.031Z,22.07
2023-05-06T11:24:04.051Z,22.06
2023-05-06T11:25:04.021Z,21.91
2023-05-06T11:26:04.099Z,21.65
2023-05-06T11:27:04.184Z,21.10
2023-05-06T11:28:04.013Z,20.99
2023-05-06T11:29:04.095Z,20.99
2023-05-06T11:30:04.009Z,21.24
2023-05-06T11:31:04.025Z,21.32
2023-05-06T11:32:03.995Z,21.27
2023-05-06T11:33:05.573Z,21.34
2023-05-06T11:34:03.959Z,21.24
2023-05-06T11:35:03.953Z,21.29
2023-05-06T11:36:03.913Z,21.65
2023-05-06T11:37:03.898Z,21.86
2023-05-06T11:38:03.943Z,22.05
2023-05-06T11:39:05.238Z,22.15
2023-05-06T11:40:03.862Z,22.14
2023-05-06T11:41:03.906Z,22.18
2023-05-06T11:42:03.893Z,22.61
2023-05-06T11:43:03.850Z,22.80
2023-05-06T11:44:03.818Z,22.80
2023-05-06T11:45:03.810Z,23.01
2023-05-06T11:46:03.833Z,23.25
2023-05-06T11:47:03.824Z,23.48
2023-05-06T11:48:03.831Z,23.32
2023-05-06T11:49:03.770Z,23.27
2023-05-06T11:50:03.774Z,23.16
2023-05-06T11:51:03.766Z,23.28
2023-05-06T11:52:03.733Z,23.61
2023-05-06T11:53:03.726Z,23.87
2023-05-06T11:54:03.715Z,24.16
2023-05-06T11:55:03.709Z,24.43
2023-05-06T11:56:03.705Z,24.68
2023-05-06T11:57:03.689Z,24.95
2023-05-06T11:58:03.733Z,25.17
2023-05-06T11:59:03.670Z,25.23
2023-05-06T12:00:03.667Z,25.17
2023-05-06T12:01:03.657Z,25.23
2023-05-06T12:02:03.667Z,25.32
2023-05-06T12:03:03.699Z,25.28
2023-05-06T12:04:03.713Z,25.21
2023-05-06T12:05:03.701Z,25.09
2023-05-06T12:06:03.596Z,25.13
2023-05-06T12:07:03.605Z,25.18
2023-05-06T12:08:06.404Z,24.83
2023-05-06T12:09:04.559Z,24.61
2023-05-06T12:10:03.543Z,24.58
2023-05-06T12:11:03.566Z,24.61
2023-05-06T12:12:03.541Z,24.84
2023-05-06T12:13:03.590Z,24.95
2023-05-06T12:14:03.508Z,24.91
2023-05-06T12:15:03.532Z,25.00
2023-05-06T12:16:03.526Z,25.15
2023-05-06T12:17:03.484Z,25.10
2023-05-06T12:18:03.520Z,25.20
2023-05-06T12:19:03.472Z,25.42
2023-05-06T12:20:03.437Z,25.40
2023-05-06T12:21:03.449Z,25.36
2023-05-06T12:22:03.405Z,25.28
2023-05-06T12:23:03.416Z,25.50
2023-05-06T12:24:03.406Z,25.80
2023-05-06T12:25:03.391Z,25.60
2023-05-06T12:26:03.412Z,25.65
2023-05-06T12:27:03.365Z,25.73
2023-05-06T12:28:03.357Z,25.85
2023-05-06T12:29:03.466Z,25.87
2023-05-06T12:30:03.340Z,26.10
2023-05-06T12:31:03.432Z,26.29
2023-05-06T12:32:03.403Z,26.50
2023-05-06T12:33:04.338Z,26.81
2023-05-06T12:34:03.325Z,27.10
2023-05-06T12:35:03.282Z,27.18
2023-05-06T12:36:03.280Z,27.17
2023-05-06T12:37:03.274Z,26.73
2023-05-06T12:38:03.278Z,26.23
2023-05-06T12:39:03.240Z,26.10
2023-05-06T12:40:03.251Z,26.33
2023-05-06T12:41:03.260Z,26.40
2023-05-06T12:42:03.225Z,26.45
2023-05-06T12:43:03.203Z,26.33
2023-05-06T12:44:03.213Z,26.05
2023-05-06T12:45:03.201Z,25.20
2023-05-06T12:46:03.241Z,24.62
2023-05-06T12:47:03.169Z,24.53
2023-05-06T12:48:03.207Z,24.76
2023-05-06T12:49:03.193Z,24.96
2023-05-06T12:50:03.148Z,25.15
2023-05-06T12:51:03.143Z,25.38
2023-05-06T12:52:03.142Z,25.61